createdAt,value
2019-02-06T00:01:07.611Z,2.80
2019-02-06T00:03:37.304Z,2.80
2019-02-06T00:06:07.977Z,2.70
2019-02-06T00:08:37.674Z,2.70
2019-02-06T00:11:07.553Z,2.80
2019-02-06T00:13:37.611Z,2.70
2019-02-06T00:16:07.665Z,2.70
2019-02-06T00:18:37.626Z,2.70
2019-02-06T00:21:07.409Z,2.70
2019-02-06T00:23:37.122Z,2.60
2019-02-06T00:26:07.003Z,2.60
2019-02-06T00:28:36.898Z,2.70
2019-02-06T00:31:06.685Z,2.60
2019-02-06T00:33:36.385Z,2.70
2019-02-06T00:36:06.093Z,2.60
2019-02-06T00:38:35.837Z,2.60
2019-02-06T00:41:05.658Z,2.70
2019-02-06T00:43:35.277Z,2.60
2019-02-06T00:46:05.221Z,2.60
2019-02-06T00:48:35.926Z,2.70
2019-02-06T00:51:05.613Z,2.60
2019-02-06T00:53:35.309Z,2.60
2019-02-06T00:56:06.346Z,2.60
2019-02-06T00:58:36.054Z,2.60
2019-02-06T01:01:06.418Z,2.60
2019-02-06T01:03:37.014Z,2.60
2019-02-06T01:06:06.889Z,2.60
2019-02-06T01:08:36.965Z,2.60
2019-02-06T01:11:07.032Z,2.60
2019-02-06T01:13:36.669Z,2.60
2019-02-06T01:16:06.462Z,2.60
2019-02-06T01:18:36.106Z,2.60
2019-02-06T01:21:05.802Z,2.60
2019-02-06T01:23:35.426Z,2.60
2019-02-06T01:26:05.558Z,2.60
2019-02-06T01:28:35.259Z,2.60
2019-02-06T01:31:09.906Z,2.60
2019-02-06T01:33:39.839Z,2.70
2019-02-06T01:36:09.985Z,2.70
2019-02-06T01:38:39.713Z,2.70
2019-02-06T01:41:09.478Z,2.70
2019-02-06T01:43:39.173Z,2.80
2019-02-06T01:46:09.237Z,2.80
2019-02-06T01:48:38.920Z,2.80
2019-02-06T01:51:08.557Z,2.80
2019-02-06T01:53:38.181Z,2.80
2019-02-06T01:56:08.497Z,2.90
2019-02-06T01:58:38.472Z,2.80
2019-02-06T02:01:08.818Z,2.80
2019-02-06T02:03:38.685Z,2.90
2019-02-06T02:06:08.590Z,2.90
2019-02-06T02:08:41.975Z,3.00
2019-02-06T02:11:11.628Z,2.90
2019-02-06T02:13:41.292Z,3.00
2019-02-06T02:16:10.957Z,3.00
2019-02-06T02:18:40.546Z,3.00
2019-02-06T02:21:10.201Z,3.00
2019-02-06T02:23:40.516Z,3.10
2019-02-06T02:26:10.337Z,3.10
2019-02-06T02:28:39.916Z,3.10
2019-02-06T02:31:10.128Z,3.20
2019-02-06T02:33:39.786Z,3.20
2019-02-06T02:36:15.825Z,3.20
2019-02-06T02:38:40.662Z,3.20
2019-02-06T02:41:10.234Z,3.20
2019-02-06T02:43:40.185Z,3.30
2019-02-06T02:46:09.918Z,3.30
2019-02-06T02:48:39.514Z,3.30
2019-02-06T02:51:09.405Z,3.30
2019-02-06T02:53:38.986Z,3.30
2019-02-06T02:56:08.580Z,3.30
2019-02-06T02:58:38.243Z,3.40
2019-02-06T03:01:45.327Z,3.30
2019-02-06T03:04:40.480Z,3.40
2019-02-06T03:07:10.312Z,3.30
2019-02-06T03:09:40.506Z,3.30
2019-02-06T03:12:10.129Z,3.30
2019-02-06T03:14:39.753Z,3.30
2019-02-06T03:17:09.493Z,3.40
2019-02-06T03:19:39.906Z,3.40
2019-02-06T03:22:09.838Z,3.40
2019-02-06T03:24:39.891Z,3.40
2019-02-06T03:27:09.502Z,3.40
2019-02-06T03:29:39.552Z,3.40
2019-02-06T03:32:09.180Z,3.40
2019-02-06T03:34:39.541Z,3.40
2019-02-06T03:37:09.208Z,3.40
2019-02-06T03:39:39.564Z,3.40
2019-02-06T03:42:09.324Z,3.40
2019-02-06T03:44:39.561Z,3.40
2019-02-06T03:47:09.421Z,3.40
2019-02-06T03:49:42.687Z,3.40
2019-02-06T03:52:11.188Z,3.40
2019-02-06T03:54:40.858Z,3.40
2019-02-06T03:57:10.545Z,3.50
2019-02-06T03:59:40.241Z,3.50
2019-02-06T04:02:10.298Z,3.50
2019-02-06T04:04:39.993Z,3.50
2019-02-06T04:07:10.217Z,3.50
2019-02-06T04:09:39.835Z,3.50
2019-02-06T04:12:09.775Z,3.50
2019-02-06T04:14:39.582Z,3.50
2019-02-06T04:17:09.214Z,3.50
2019-02-06T04:19:39.892Z,3.50
2019-02-06T04:22:09.893Z,3.50
2019-02-06T04:24:39.666Z,3.50
2019-02-06T04:27:09.281Z,3.50
2019-02-06T04:29:39.852Z,3.50
2019-02-06T04:32:09.486Z,3.50
2019-02-06T04:34:39.620Z,3.50
2019-02-06T04:37:09.253Z,3.50
2019-02-06T04:39:39.726Z,3.40
2019-02-06T04:42:09.353Z,3.50
2019-02-06T04:44:39.989Z,3.40
2019-02-06T04:47:09.644Z,3.50
2019-02-06T04:49:39.697Z,3.50
2019-02-06T04:52:09.473Z,3.50
2019-02-06T04:54:39.685Z,3.50
2019-02-06T04:57:09.566Z,3.50
2019-02-06T04:59:39.930Z,3.50
2019-02-06T05:02:09.616Z,3.50
2019-02-06T05:04:39.658Z,3.50
2019-02-06T05:07:18.749Z,3.50
2019-02-06T05:09:40.897Z,3.50
2019-02-06T05:12:10.641Z,3.50
2019-02-06T05:14:40.573Z,3.50
2019-02-06T05:17:10.253Z,3.50
2019-02-06T05:19:40.386Z,3.50
2019-02-06T05:22:10.030Z,3.50
2019-02-06T05:24:39.716Z,3.50
2019-02-06T05:27:09.704Z,3.60
2019-02-06T05:29:39.862Z,3.50
2019-02-06T05:32:09.586Z,3.60
2019-02-06T05:34:39.910Z,3.60
2019-02-06T05:37:09.527Z,3.50
2019-02-06T05:39:39.708Z,3.50
2019-02-06T05:42:09.674Z,3.60
2019-02-06T05:44:39.741Z,3.60
2019-02-06T05:47:09.359Z,3.60
2019-02-06T05:49:39.677Z,3.50
2019-02-06T05:52:09.297Z,3.50
2019-02-06T05:54:39.726Z,3.50
2019-02-06T05:57:09.343Z,3.50
2019-02-06T05:59:39.673Z,3.50
2019-02-06T06:02:09.332Z,3.50
2019-02-06T06:04:40.069Z,3.50
2019-02-06T06:07:09.686Z,3.50
2019-02-06T06:09:39.637Z,3.50
2019-02-06T06:12:09.258Z,3.50
2019-02-06T06:14:40.007Z,3.50
2019-02-06T06:17:09.629Z,3.40
2019-02-06T06:19:39.894Z,3.40
2019-02-06T06:22:09.918Z,3.50
2019-02-06T06:24:39.925Z,3.40
2019-02-06T06:27:09.601Z,3.40
2019-02-06T06:29:39.737Z,3.40
2019-02-06T06:32:09.421Z,3.50
2019-02-06T06:34:39.636Z,3.50
2019-02-06T06:37:09.248Z,3.50
2019-02-06T06:39:39.854Z,3.50
2019-02-06T06:42:09.755Z,3.50
2019-02-06T06:44:39.968Z,3.50
2019-02-06T06:47:09.580Z,3.50
2019-02-06T06:49:40.018Z,3.50
2019-02-06T06:52:09.711Z,3.50
2019-02-06T06:54:39.997Z,3.50
2019-02-06T06:57:12.389Z,3.50
2019-02-06T06:59:41.252Z,3.50
2019-02-06T07:02:11.274Z,3.50
2019-02-06T07:04:41.176Z,3.50
2019-02-06T07:07:11.024Z,3.50
2019-02-06T07:09:40.649Z,3.40
2019-02-06T07:12:10.337Z,3.50
2019-02-06T07:14:40.665Z,3.50
2019-02-06T07:17:10.347Z,3.50
2019-02-06T07:19:40.042Z,3.50
2019-02-06T07:22:09.876Z,3.50
2019-02-06T07:24:39.700Z,3.50
2019-02-06T07:27:09.394Z,3.50
2019-02-06T07:29:39.667Z,3.50
2019-02-06T07:32:09.280Z,3.50
2019-02-06T07:34:39.893Z,3.50
2019-02-06T07:37:09.580Z,3.50
2019-02-06T07:39:39.789Z,3.50
2019-02-06T07:42:09.589Z,3.50
2019-02-06T07:44:39.690Z,3.50
2019-02-06T07:47:09.695Z,3.60
2019-02-06T07:49:39.733Z,3.60
2019-02-06T07:52:09.433Z,3.60
2019-02-06T07:54:39.676Z,3.60
2019-02-06T07:57:09.564Z,3.70
2019-02-06T07:59:39.689Z,3.70
2019-02-06T08:02:09.788Z,3.80
2019-02-06T08:04:41.627Z,3.80
2019-02-06T08:07:11.313Z,3.80
2019-02-06T08:09:41.063Z,3.90
2019-02-06T08:12:11.093Z,3.90
2019-02-06T08:14:40.713Z,4.00
2019-02-06T08:17:10.621Z,4.10
2019-02-06T08:19:40.233Z,4.10
2019-02-06T08:22:09.874Z,4.10
2019-02-06T08:24:39.869Z,4.20
2019-02-06T08:27:09.582Z,4.20
2019-02-06T08:29:40.041Z,4.20
2019-02-06T08:32:09.846Z,4.30
2019-02-06T08:34:39.784Z,4.30
2019-02-06T08:37:09.463Z,4.30
2019-02-06T08:39:39.780Z,4.20
2019-02-06T08:42:09.485Z,4.30
2019-02-06T08:44:39.950Z,4.30
2019-02-06T08:47:09.589Z,4.30
2019-02-06T08:49:39.763Z,4.30
2019-02-06T08:52:09.702Z,4.30
2019-02-06T08:54:39.959Z,4.40
2019-02-06T08:57:09.613Z,4.50
2019-02-06T08:59:39.842Z,4.50
2019-02-06T09:02:09.789Z,4.60
2019-02-06T09:04:39.737Z,4.60
2019-02-06T09:07:09.482Z,4.60
2019-02-06T09:09:39.933Z,4.60
2019-02-06T09:12:09.558Z,4.50
2019-02-06T09:14:39.816Z,4.50
2019-02-06T09:17:09.765Z,4.50
2019-02-06T09:19:40.207Z,4.60
2019-02-06T09:22:10.070Z,4.60
2019-02-06T09:24:40.190Z,4.60
2019-02-06T09:27:09.901Z,4.60
2019-02-06T09:29:41.129Z,4.60
2019-02-06T09:32:10.754Z,4.60
2019-02-06T09:34:40.822Z,4.60
2019-02-06T09:37:10.933Z,4.60
2019-02-06T09:39:40.569Z,4.60
2019-02-06T09:42:10.566Z,4.60
2019-02-06T09:44:40.757Z,4.60
2019-02-06T09:47:10.476Z,4.60
2019-02-06T09:49:41.667Z,4.70
2019-02-06T09:52:11.554Z,4.70
2019-02-06T09:54:41.265Z,4.70
2019-02-06T09:57:10.895Z,4.90
2019-02-06T09:59:41.866Z,4.90
2019-02-06T10:02:11.565Z,5.00
2019-02-06T10:04:41.355Z,5.00
2019-02-06T10:07:11.338Z,5.10
2019-02-06T10:09:40.974Z,5.10
2019-02-06T10:12:12.010Z,5.10
2019-02-06T10:14:41.668Z,5.20
2019-02-06T10:17:11.368Z,5.20
2019-02-06T10:19:42.539Z,5.30
2019-02-06T10:22:12.374Z,5.40
2019-02-06T10:24:42.053Z,5.40
2019-02-06T10:27:12.045Z,5.40
2019-02-06T10:29:41.665Z,5.50
2019-02-06T10:32:11.385Z,5.40
2019-02-06T10:34:41.011Z,5.50
2019-02-06T10:37:11.994Z,5.60
2019-02-06T10:39:42.273Z,5.60
2019-02-06T10:42:12.060Z,5.60
2019-02-06T10:44:41.998Z,5.70
2019-02-06T10:47:11.856Z,5.70
2019-02-06T10:49:41.565Z,5.70
2019-02-06T10:52:11.393Z,5.70
2019-02-06T10:54:41.012Z,5.70
2019-02-06T10:57:10.999Z,5.80
2019-02-06T10:59:40.665Z,5.90
2019-02-06T11:02:11.704Z,5.80
2019-02-06T11:04:41.497Z,5.90
2019-02-06T11:07:11.433Z,5.90
2019-02-06T11:09:45.922Z,5.90
2019-02-06T11:12:12.869Z,5.90
2019-02-06T11:14:44.291Z,5.90
2019-02-06T11:17:14.173Z,6.00
2019-02-06T11:19:43.874Z,5.80
2019-02-06T11:22:13.584Z,5.90
2019-02-06T11:24:43.389Z,6.00
2019-02-06T11:27:13.018Z,6.00
2019-02-06T11:29:42.790Z,6.00
2019-02-06T11:32:12.666Z,5.90
2019-02-06T11:34:42.276Z,5.90
2019-02-06T11:37:12.205Z,6.00
2019-02-06T11:39:42.297Z,6.00
2019-02-06T11:42:12.236Z,5.90
2019-02-06T11:44:42.348Z,5.90
2019-02-06T11:47:11.971Z,6.00
2019-02-06T11:49:43.460Z,6.10
2019-02-06T11:52:13.089Z,6.10
2019-02-06T11:54:43.214Z,6.20
2019-02-06T11:57:12.886Z,6.10
2019-02-06T11:59:42.658Z,6.00
2019-02-06T12:02:13.300Z,6.00
2019-02-06T12:04:43.043Z,6.00
2019-02-06T12:07:12.900Z,6.00
2019-02-06T12:09:42.699Z,6.10
2019-02-06T12:12:12.696Z,6.20
2019-02-06T12:14:42.454Z,6.20
2019-02-06T12:17:12.151Z,6.20
2019-02-06T12:19:41.830Z,6.20
2019-02-06T12:22:11.465Z,6.20
2019-02-06T12:24:41.257Z,6.10
2019-02-06T12:27:10.904Z,6.10
2019-02-06T12:29:40.797Z,6.00
2019-02-06T12:32:10.526Z,6.00
2019-02-06T12:34:40.814Z,6.00
2019-02-06T12:37:10.450Z,6.00
2019-02-06T12:39:40.897Z,6.00
2019-02-06T12:42:10.844Z,6.00
2019-02-06T12:44:41.216Z,6.00
2019-02-06T12:47:11.014Z,6.00
2019-02-06T12:49:40.957Z,6.00
2019-02-06T12:52:10.928Z,6.00
2019-02-06T12:54:41.101Z,6.00
2019-02-06T12:57:11.119Z,6.00
2019-02-06T12:59:41.166Z,6.00
2019-02-06T13:02:11.354Z,6.10
2019-02-06T13:04:41.454Z,6.10
2019-02-06T13:07:12.327Z,6.20
2019-02-06T13:09:42.344Z,6.10
2019-02-06T13:12:12.005Z,6.10
2019-02-06T13:14:41.647Z,6.10
2019-02-06T13:17:11.449Z,6.10
2019-02-06T13:19:41.276Z,6.20
2019-02-06T13:22:10.986Z,6.10
2019-02-06T13:24:41.336Z,6.10
2019-02-06T13:27:11.217Z,6.10
2019-02-06T13:29:41.629Z,6.10
2019-02-06T13:32:11.269Z,6.10
2019-02-06T13:34:41.547Z,6.10
2019-02-06T13:37:11.228Z,6.10
2019-02-06T13:39:41.535Z,6.00
2019-02-06T13:42:11.477Z,6.10
2019-02-06T13:44:41.944Z,6.10
2019-02-06T13:47:11.638Z,6.00
2019-02-06T13:49:41.588Z,6.00
2019-02-06T13:52:11.205Z,5.90
2019-02-06T13:54:42.662Z,6.00
2019-02-06T13:57:12.450Z,6.10
2019-02-06T13:59:42.079Z,6.00
2019-02-06T14:02:11.838Z,6.00
2019-02-06T14:04:41.798Z,6.00
2019-02-06T14:07:11.566Z,5.90
2019-02-06T14:09:41.819Z,5.90
2019-02-06T14:12:13.518Z,5.90
2019-02-06T14:14:43.108Z,6.00
2019-02-06T14:17:12.895Z,6.00
2019-02-06T14:19:42.890Z,6.00
2019-02-06T14:22:12.577Z,6.00
2019-02-06T14:24:50.054Z,6.00
2019-02-06T14:27:44.746Z,6.00
2019-02-06T14:30:32.569Z,5.90
2019-02-06T14:33:21.538Z,6.00
2019-02-06T14:36:16.887Z,5.90
2019-02-06T14:39:06.941Z,5.90
2019-02-06T14:41:47.100Z,6.00
2019-02-06T14:44:48.388Z,6.00
2019-02-06T14:47:36.694Z,6.00
2019-02-06T14:50:15.948Z,6.00
2019-02-06T14:53:15.245Z,6.00
2019-02-06T14:56:14.931Z,6.00
2019-02-06T14:59:31.011Z,6.10
2019-02-06T15:02:25.450Z,6.10
2019-02-06T15:05:33.353Z,6.10
2019-02-06T15:08:33.061Z,6.10
2019-02-06T15:11:19.848Z,6.10
2019-02-06T15:14:32.889Z,6.20
2019-02-06T15:17:46.151Z,6.20
2019-02-06T15:20:40.896Z,6.20
2019-02-06T15:23:33.061Z,6.20
2019-02-06T15:26:29.017Z,6.30
2019-02-06T15:29:27.381Z,6.30
2019-02-06T15:32:25.546Z,6.30
2019-02-06T15:35:16.050Z,6.30
2019-02-06T15:38:04.331Z,6.30
2019-02-06T15:41:02.643Z,6.20
2019-02-06T15:43:58.326Z,6.20
2019-02-06T15:46:50.338Z,6.30
2019-02-06T15:49:28.959Z,6.10
2019-02-06T15:52:34.582Z,6.10
2019-02-06T15:55:35.094Z,6.10
2019-02-06T15:58:44.606Z,6.00
2019-02-06T16:01:33.322Z,6.10
2019-02-06T16:05:05.477Z,6.10
2019-02-06T16:07:50.410Z,6.00
2019-02-06T16:10:44.577Z,6.00
2019-02-06T16:13:24.752Z,6.00
2019-02-06T16:16:22.607Z,6.00
2019-02-06T16:19:25.023Z,6.00
2019-02-06T16:22:22.951Z,6.00
2019-02-06T16:25:10.373Z,6.00
2019-02-06T16:28:08.531Z,6.00
2019-02-06T16:31:18.689Z,6.00
2019-02-06T16:34:24.665Z,6.00
2019-02-06T16:37:18.568Z,6.00
2019-02-06T16:40:16.224Z,6.00
2019-02-06T16:43:13.811Z,6.00
2019-02-06T16:46:10.136Z,6.00
2019-02-06T16:49:02.873Z,5.90
2019-02-06T16:51:49.779Z,6.00
2019-02-06T16:55:01.889Z,6.00
2019-02-06T16:58:09.909Z,5.90
2019-02-06T17:01:27.861Z,5.90
2019-02-06T17:04:19.592Z,6.00
2019-02-06T17:07:15.312Z,5.90
2019-02-06T17:10:16.144Z,5.90
2019-02-06T17:13:35.225Z,5.90
2019-02-06T17:16:31.469Z,5.90
2019-02-06T17:19:20.941Z,5.90
2019-02-06T17:22:14.692Z,5.90
2019-02-06T17:25:22.820Z,6.20
2019-02-06T17:28:37.750Z,6.40
2019-02-06T17:31:34.311Z,6.40
2019-02-06T17:34:22.767Z,6.30
2019-02-06T17:37:24.351Z,6.20
2019-02-06T17:40:26.637Z,6.20
2019-02-06T17:43:29.301Z,6.10
2019-02-06T17:46:40.688Z,6.10
2019-02-06T17:49:54.749Z,6.00
2019-02-06T17:52:50.940Z,6.00
2019-02-06T17:55:23.280Z,6.00
2019-02-06T17:57:57.538Z,6.00
2019-02-06T18:00:48.289Z,6.00
2019-02-06T18:03:18.054Z,6.00
2019-02-06T18:05:48.712Z,6.00
2019-02-06T18:08:18.422Z,6.00
2019-02-06T18:10:48.101Z,6.00
2019-02-06T18:13:18.086Z,6.00
2019-02-06T18:15:48.193Z,6.00
2019-02-06T18:18:17.832Z,6.00
2019-02-06T18:20:47.781Z,6.00
2019-02-06T18:23:17.408Z,6.00
2019-02-06T18:25:47.098Z,6.00
2019-02-06T18:28:17.211Z,6.00
2019-02-06T18:30:46.978Z,6.00
2019-02-06T18:33:18.767Z,6.10
2019-02-06T18:35:48.752Z,6.10
2019-02-06T18:38:18.537Z,6.00
2019-02-06T18:40:48.964Z,6.10
2019-02-06T18:43:18.904Z,6.10
2019-02-06T18:45:48.801Z,6.10
2019-02-06T18:48:23.420Z,6.10
2019-02-06T18:50:53.974Z,6.10
2019-02-06T18:53:25.006Z,6.20
2019-02-06T18:55:55.290Z,6.10
2019-02-06T18:58:27.471Z,6.20
2019-02-06T19:00:56.438Z,6.10
2019-02-06T19:03:33.069Z,6.10
2019-02-06T19:06:02.912Z,6.10
2019-02-06T19:08:32.944Z,6.10
2019-02-06T19:11:02.729Z,6.10
2019-02-06T19:13:32.497Z,6.00
2019-02-06T19:16:02.542Z,6.10
2019-02-06T19:18:32.201Z,6.10
2019-02-06T19:21:01.988Z,6.10
2019-02-06T19:23:44.804Z,6.10
2019-02-06T19:26:14.545Z,6.10
2019-02-06T19:28:45.321Z,6.10
2019-02-06T19:31:15.023Z,6.10
2019-02-06T19:33:44.725Z,6.20
2019-02-06T19:36:14.801Z,6.10
2019-02-06T19:38:46.087Z,6.10
2019-02-06T19:41:15.966Z,6.10
2019-02-06T19:43:45.795Z,6.10
2019-02-06T19:46:15.534Z,6.10
2019-02-06T19:48:45.903Z,6.10
2019-02-06T19:51:15.693Z,6.10
2019-02-06T19:53:45.931Z,6.10
2019-02-06T19:56:15.694Z,6.10
2019-02-06T19:58:46.516Z,6.10
2019-02-06T20:01:16.251Z,6.10
2019-02-06T20:03:45.954Z,6.10
2019-02-06T20:06:32.291Z,6.10
2019-02-06T20:09:14.816Z,6.10
2019-02-06T20:11:44.795Z,6.10
2019-02-06T20:14:15.611Z,6.10
2019-02-06T20:16:45.233Z,6.20
2019-02-06T20:19:14.988Z,6.20
2019-02-06T20:21:44.791Z,6.20
2019-02-06T20:24:14.668Z,6.20
2019-02-06T20:26:44.397Z,6.20
2019-02-06T20:29:14.350Z,6.20
2019-02-06T20:31:44.364Z,6.10
2019-02-06T20:34:14.061Z,6.10
2019-02-06T20:36:44.068Z,6.20
2019-02-06T20:39:13.826Z,6.20
2019-02-06T20:41:43.446Z,6.20
2019-02-06T20:44:13.338Z,6.20
2019-02-06T20:46:42.963Z,6.20
2019-02-06T20:49:12.941Z,6.20
2019-02-06T20:51:42.648Z,6.20
2019-02-06T20:54:12.616Z,6.20
2019-02-06T20:56:42.307Z,6.20
2019-02-06T20:59:12.275Z,6.20
2019-02-06T21:01:41.908Z,6.30
2019-02-06T21:04:11.559Z,6.30
2019-02-06T21:06:41.333Z,6.20
2019-02-06T21:09:17.205Z,6.20
2019-02-06T21:11:46.821Z,6.30
2019-02-06T21:14:16.495Z,6.20
2019-02-06T21:16:46.481Z,6.30
2019-02-06T21:19:16.433Z,6.30
2019-02-06T21:21:46.086Z,6.30
2019-02-06T21:24:15.780Z,6.30
2019-02-06T21:26:45.486Z,6.30
2019-02-06T21:29:15.505Z,6.30
2019-02-06T21:31:45.421Z,6.40
2019-02-06T21:34:15.052Z,6.30
2019-02-06T21:36:44.708Z,6.30
2019-02-06T21:39:14.345Z,6.30
2019-02-06T21:41:44.050Z,6.30
2019-02-06T21:44:13.780Z,6.30
2019-02-06T21:46:43.486Z,6.30
2019-02-06T21:49:13.157Z,6.30
2019-02-06T21:51:43.184Z,6.30
2019-02-06T21:54:12.905Z,6.30
2019-02-06T21:56:42.521Z,6.30
2019-02-06T21:59:12.546Z,6.30
2019-02-06T22:01:42.456Z,6.30
2019-02-06T22:04:12.166Z,6.30
2019-02-06T22:06:42.901Z,6.30
2019-02-06T22:09:12.742Z,6.30
2019-02-06T22:11:42.541Z,6.30
2019-02-06T22:14:13.550Z,6.30
2019-02-06T22:16:43.189Z,6.30
2019-02-06T22:19:12.883Z,6.30
2019-02-06T22:21:42.590Z,6.30
2019-02-06T22:24:12.352Z,6.20
2019-02-06T22:26:42.308Z,6.20
2019-02-06T22:29:12.245Z,6.20
2019-02-06T22:31:42.259Z,6.20
2019-02-06T22:34:11.980Z,6.20
2019-02-06T22:36:41.814Z,6.20
2019-02-06T22:39:12.405Z,6.20
2019-02-06T22:41:42.033Z,6.30
2019-02-06T22:44:11.974Z,6.30
2019-02-06T22:46:41.603Z,6.30
2019-02-06T22:49:11.501Z,6.30
2019-02-06T22:51:41.126Z,6.30
2019-02-06T22:54:10.789Z,6.40
2019-02-06T22:56:41.343Z,6.40
2019-02-06T22:59:11.056Z,6.40
2019-02-06T23:01:50.033Z,6.40
2019-02-06T23:04:20.228Z,6.40
2019-02-06T23:06:49.866Z,6.40
2019-02-06T23:09:19.561Z,6.40
2019-02-06T23:11:49.453Z,6.40
2019-02-06T23:14:19.488Z,6.40
2019-02-06T23:16:49.491Z,6.40
2019-02-06T23:19:19.123Z,6.40
2019-02-06T23:21:49.058Z,6.40
2019-02-06T23:24:18.685Z,6.50
2019-02-06T23:26:48.847Z,6.50
2019-02-06T23:29:19.073Z,6.50
2019-02-06T23:31:48.696Z,6.50
2019-02-06T23:34:18.486Z,6.50
2019-02-06T23:36:48.189Z,6.50
2019-02-06T23:39:18.901Z,6.50
2019-02-06T23:41:48.894Z,6.50
2019-02-06T23:44:28.490Z,6.50
2019-02-06T23:46:50.345Z,6.50
2019-02-06T23:49:20.435Z,6.50
2019-02-06T23:51:50.073Z,6.60
2019-02-06T23:54:19.941Z,6.60
2019-02-06T23:56:50.162Z,6.60
2019-02-06T23:59:19.790Z,6.60
